aviador You're here:

KARB Decoded Metar

ANN ARBOR in MI, USA
Report Time2017-11-18 09:53:00
UTC Time2017-11-18 10:22:10
Flight Rules mvfr MVFR
Wind160° at 06 kt
W.Decomp.*RWY 12: 4.2 kt HW 4.2 kt RCW
RWY 24: 1.6 kt HW 5.8 kt LCW
W.Rank160° ranks 27
Current wind is below 160° avg. (6.1)
Visibility4828 m
Phenomena:Mist
Clouds:Scattered 003 Hf
Broken 018 Hf
Overcast 024 Hf
Ceiling1,800 ft
Temp06°C (ISA -7)
Dew Point06°C (100% RH)
AAT2.9°C
QNH1001 hPa
Density Alt476 ft
Elevation823 ft
Report Wrong Elevation
Raw Report
METAR KARB 180953Z AUTO 16006KT 3SM BR SCT003 BKN018 OVC024 06/06 A2955
RMK AO2 SLP012 T00560056=

Extra information for KARB:More info

Metar Taf Metar & Taf Last 4 Metars F.Rules Stats Wind Profile Meteogram Temp Stats Airport Information Weather charts Add Link Nearby VenuesMetar ALERT Operation Metar Decoded Social comments

AIRNAV info for KARB